West Chenango, New York
Current Conditions -  °F | °C
As of 1:53 PM on Sunday 21 Dec 2014 (Local Time) from KBGM Reporting Station
Overcast Overcast  
Wind Chill: 22°   Ceiling: 1800
Heat Index: 27°   Visibility: 10mi
Dew Point: 20°   Wind: 5mph
Humidity: 75%   Direction: 340°NNW
Pressure: 30.23"   Gusts: NA
Location:  42.1759°N, 75.9402°W
Report Text: KBGM 211853Z 34004KT 10SM OVC018 M03/M07 A3023 RMK AO2 SLP259 T10281067
Loading
Personal Weather Stations






























Interactive Weather Map New forecast layout! Learn more

10-Day Weather Forecast

Advertisements
Track Severe Weather on mobile